Time;durP1;ratioP1;P1;durP2;ratioP2;P2;SDS_P1;SDS_P2;PMS_P1;PMS_P2;Temp;Humidity;BMP_temperature;BMP_pressure;BME280_temperature;BME280_humidity;BME280_pressure;Samples;Min_cycle;Max_cycle;Signal;HPM_P1;HPM_P2
2021/08/05 00:02:04;;;;;;;8.03;7.23;;;17.30;49.60;;;;;;4992382;28;20771;-74
2021/08/05 00:04:29;;;;;;;7.40;6.70;;;17.40;49.80;;;;;;5008350;28;20469;-74
2021/08/05 00:06:55;;;;;;;9.13;7.43;;;17.40;49.30;;;;;;4976495;28;20404;-76
2021/08/05 00:09:21;;;;;;;7.72;6.30;;;17.50;48.60;;;;;;4975015;28;20388;-74
2021/08/05 00:11:47;;;;;;;9.20;6.97;;;17.60;48.10;;;;;;4973679;28;20388;-74
2021/08/05 00:14:12;;;;;;;7.80;6.95;;;17.70;47.50;;;;;;4986766;28;20933;-74
2021/08/05 00:16:39;;;;;;;7.37;6.40;;;17.80;47.20;;;;;;4993065;28;20390;-74
2021/08/05 00:19:05;;;;;;;8.00;6.83;;;17.70;47.70;;;;;;4992839;28;20390;-75
2021/08/05 00:21:31;;;;;;;8.07;6.83;;;17.70;48.00;;;;;;4992935;28;20757;-73
2021/08/05 00:23:56;;;;;;;7.60;6.80;;;17.50;48.70;;;;;;4991721;28;20402;-74
2021/08/05 00:26:22;;;;;;;10.33;6.93;;;17.50;49.90;;;;;;4992894;28;20520;-74
2021/08/05 00:28:47;;;;;;;9.75;7.00;;;17.40;50.90;;;;;;4992384;28;20426;-75
2021/08/05 00:31:13;;;;;;;7.85;6.75;;;17.30;51.70;;;;;;5007744;28;20465;-73
2021/08/05 00:33:39;;;;;;;9.45;6.90;;;17.20;52.80;;;;;;4992770;28;20406;-74
2021/08/05 00:36:05;;;;;;;10.90;6.88;;;17.20;53.30;;;;;;4992535;28;20520;-73
2021/08/05 00:38:32;;;;;;;8.85;7.57;;;17.20;53.50;;;;;;4991283;28;20891;-73
2021/08/05 00:40:57;;;;;;;7.80;6.85;;;17.20;52.90;;;;;;4992554;28;20402;-72
2021/08/05 00:43:23;;;;;;;8.40;7.50;;;17.30;52.60;;;;;;4992114;28;20403;-73
2021/08/05 00:45:49;;;;;;;10.73;7.10;;;17.30;53.30;;;;;;4992441;28;20425;-73
2021/08/05 00:48:15;;;;;;;10.20;8.47;;;17.40;52.80;;;;;;4992103;28;20410;-72
2021/08/05 00:50:41;;;;;;;9.90;8.38;;;17.50;53.30;;;;;;5007488;28;20481;-73
2021/08/05 00:53:06;;;;;;;13.03;9.30;;;17.60;54.20;;;;;;4992324;28;20410;-74
2021/08/05 00:55:32;;;;;;;12.80;9.60;;;17.50;56.20;;;;;;4992338;28;20429;-75
2021/08/05 00:57:58;;;;;;;15.05;10.80;;;17.30;57.80;;;;;;4991911;28;20426;-75
2021/08/05 01:00:25;;;;;;;16.67;12.70;;;17.20;60.30;;;;;;4992473;28;20485;-75
2021/08/05 01:03:07;;;;;;;15.50;13.20;;;17.10;61.20;;;;;;4992239;28;20460;-74
2021/08/05 01:05:38;;;;;;;16.95;14.93;;;17.10;61.30;;;;;;4992396;28;20983;-74
2021/08/05 01:08:10;;;;;;;18.98;15.00;;;17.00;61.70;;;;;;5006936;28;20454;-74
2021/08/05 01:10:48;;;;;;;22.08;16.05;;;17.00;61.90;;;;;;4990706;28;20390;-74
2021/08/05 01:13:46;;;;;;;21.03;16.67;;;17.00;61.70;;;;;;4992124;28;20394;-74
2021/08/05 01:16:15;;;;;;;19.70;16.10;;;17.00;62.40;;;;;;4992036;28;20402;-74
2021/08/05 01:18:45;;;;;;;23.55;18.00;;;17.00;64.90;;;;;;4992163;28;20826;-74
2021/08/05 01:21:19;;;;;;;22.27;17.67;;;17.00;66.60;;;;;;4992116;28;20421;-75
2021/08/05 01:23:54;;;;;;;25.40;19.85;;;16.90;67.00;;;;;;4992426;28;20394;-74
2021/08/05 01:26:48;;;;;;;28.65;22.77;;;16.90;67.50;;;;;;4990644;28;20433;-75
2021/08/05 01:29:15;;;;;;;28.37;22.90;;;16.80;68.50;;;;;;4991783;28;20426;-74
2021/08/05 01:31:42;;;;;;;29.88;21.67;;;16.80;69.60;;;;;;4992072;28;20395;-75
2021/08/05 01:34:11;;;;;;;40.95;29.08;;;16.80;70.50;;;;;;4992462;28;20387;-75
2021/08/05 01:36:37;;;;;;;36.40;28.05;;;16.80;71.40;;;;;;4992508;28;20421;-75
2021/08/05 01:39:03;;;;;;;37.08;28.23;;;16.90;71.80;;;;;;4991707;28;21032;-74
2021/08/05 01:41:30;;;;;;;34.72;26.50;;;16.80;72.30;;;;;;4991939;28;20478;-74
2021/08/05 01:43:57;;;;;;;39.38;29.55;;;16.90;72.20;;;;;;4992020;28;20886;-73
2021/08/05 01:46:23;;;;;;;38.22;29.70;;;16.90;71.30;;;;;;4991936;28;20402;-75
2021/08/05 01:48:52;;;;;;;40.50;31.35;;;16.80;71.70;;;;;;4991558;28;20811;-75
2021/08/05 01:51:22;;;;;;;39.83;30.58;;;16.80;72.10;;;;;;4990332;28;20493;-74
2021/08/05 01:53:51;;;;;;;47.47;31.80;;;16.80;72.40;;;;;;4991070;28;20399;-73
2021/08/05 01:56:23;;;;;;;51.95;34.28;;;16.80;72.70;;;;;;4991395;28;20437;-74
2021/08/05 01:58:49;;;;;;;44.95;34.20;;;16.80;73.10;;;;;;4991388;28;20405;-75
2021/08/05 02:01:19;;;;;;;46.57;34.83;;;16.80;73.50;;;;;;4991178;28;20399;-75
2021/08/05 02:04:21;;;;;;;54.83;38.25;;;16.80;73.80;;;;;;4991209;28;20386;-74
2021/08/05 02:07:02;;;;;;;49.08;38.03;;;16.80;72.90;;;;;;4990891;28;20755;-76
2021/08/05 02:09:47;;;;;;;50.80;36.40;;;16.80;71.40;;;;;;4990101;28;20795;-74
2021/08/05 02:12:12;;;;;;;48.30;35.75;;;16.80;69.20;;;;;;4971968;28;20467;-73
2021/08/05 02:14:39;;;;;;;47.00;35.15;;;16.80;68.50;;;;;;4971667;28;20905;-74
2021/08/05 02:17:07;;;;;;;43.05;33.42;;;16.80;68.80;;;;;;4971791;28;20395;-74
2021/08/05 02:19:34;;;;;;;46.38;34.80;;;16.70;69.60;;;;;;4971771;28;20388;-75
2021/08/05 02:22:01;;;;;;;44.60;33.33;;;16.80;68.20;;;;;;4983841;28;20395;-74
2021/08/05 02:24:30;;;;;;;42.70;34.45;;;16.80;67.90;;;;;;4992434;28;20417;-74
2021/08/05 02:27:00;;;;;;;45.30;33.67;;;16.80;68.70;;;;;;4995056;28;20430;-74
2021/08/05 02:29:30;;;;;;;49.70;34.33;;;16.70;68.80;;;;;;4994906;28;20386;-74
2021/08/05 02:31:57;;;;;;;40.63;32.13;;;16.70;69.00;;;;;;4995059;28;20481;-74
2021/08/05 02:34:24;;;;;;;39.53;31.50;;;16.70;69.30;;;;;;4994985;28;20429;-75
2021/08/05 02:36:51;;;;;;;48.30;31.80;;;16.70;69.20;;;;;;4994775;28;20391;-74
2021/08/05 02:39:17;;;;;;;49.57;31.97;;;16.70;69.50;;;;;;4995079;28;20455;-74
2021/08/05 02:41:43;;;;;;;41.43;30.47;;;16.60;69.60;;;;;;4994869;28;20391;-74
2021/08/05 02:44:09;;;;;;;38.38;28.40;;;16.60;70.30;;;;;;4994627;28;20394;-76
2021/08/05 02:46:35;;;;;;;44.33;30.67;;;16.60;70.70;;;;;;5011329;28;20879;-76
2021/08/05 02:49:03;;;;;;;39.65;30.30;;;16.60;70.30;;;;;;4996456;28;20437;-76
2021/08/05 02:51:30;;;;;;;37.53;28.88;;;16.50;70.90;;;;;;4995140;28;20432;-74
2021/08/05 02:53:56;;;;;;;37.53;28.67;;;16.70;69.40;;;;;;4994444;28;20388;-74
2021/08/05 02:56:22;;;;;;;39.97;30.30;;;16.70;69.30;;;;;;4994601;28;20859;-74
2021/08/05 02:58:48;;;;;;;39.17;29.70;;;16.70;68.60;;;;;;4994462;28;20418;-75
2021/08/05 03:01:13;;;;;;;51.90;31.25;;;16.70;67.50;;;;;;4994438;28;20481;-74
2021/08/05 03:03:41;;;;;;;37.55;28.95;;;16.70;68.10;;;;;;4992963;28;20489;-74
2021/08/05 03:06:08;;;;;;;40.47;29.90;;;16.60;69.10;;;;;;4992717;28;20403;-74
2021/08/05 03:08:38;;;;;;;38.75;30.02;;;16.60;69.80;;;;;;5010143;28;20410;-74
2021/08/05 03:11:04;;;;;;;40.70;30.63;;;16.50;69.80;;;;;;4994610;28;20422;-73
2021/08/05 03:13:29;;;;;;;42.80;30.95;;;16.60;69.00;;;;;;5009320;28;20504;-75
2021/08/05 03:15:55;;;;;;;38.63;30.57;;;16.50;69.40;;;;;;5019896;23;20437;-70
2021/08/05 03:18:20;;;;;;;42.17;29.47;;;16.50;69.10;;;;;;5012880;28;20404;-72
2021/08/05 03:20:46;;;;;;;43.50;30.55;;;16.50;69.50;;;;;;5013340;28;20391;-72
2021/08/05 03:23:11;;;;;;;42.00;30.40;;;16.50;70.10;;;;;;5012981;28;20385;-72
2021/08/05 03:25:37;;;;;;;43.73;30.40;;;16.50;70.10;;;;;;5013102;28;20761;-72
2021/08/05 03:28:03;;;;;;;37.37;29.20;;;16.50;70.20;;;;;;5012636;28;20397;-71
2021/08/05 03:30:28;;;;;;;42.35;30.33;;;16.50;70.40;;;;;;5013204;28;20391;-72
2021/08/05 03:32:54;;;;;;;50.58;31.70;;;16.50;70.40;;;;;;5012580;28;20396;-70
2021/08/05 03:35:19;;;;;;;42.50;30.40;;;16.50;70.10;;;;;;5012268;28;20385;-72
2021/08/05 03:37:45;;;;;;;40.37;30.83;;;16.60;69.20;;;;;;5012251;28;20389;-72
2021/08/05 03:40:10;;;;;;;43.67;31.33;;;16.60;69.10;;;;;;5012891;28;20389;-71
2021/08/05 03:42:36;;;;;;;46.92;33.20;;;16.50;69.60;;;;;;5012762;28;20385;-70
2021/08/05 03:45:02;;;;;;;41.95;30.80;;;16.50;70.00;;;;;;5012105;28;20484;-70
2021/08/05 03:47:28;;;;;;;40.40;29.73;;;16.50;70.40;;;;;;5012541;28;20840;-72
2021/08/05 03:49:53;;;;;;;46.45;30.75;;;16.50;70.10;;;;;;5012623;28;20467;-71
2021/08/05 03:52:19;;;;;;;43.70;31.20;;;16.50;69.80;;;;;;5012543;28;20472;-72
2021/08/05 03:54:44;;;;;;;44.07;30.97;;;16.50;70.10;;;;;;5012674;28;20424;-72
2021/08/05 03:57:10;;;;;;;40.50;30.73;;;16.50;70.20;;;;;;5012543;28;20381;-72
2021/08/05 03:59:35;;;;;;;43.90;30.37;;;16.50;70.10;;;;;;5011908;28;20413;-72
2021/08/05 04:02:01;;;;;;;44.93;31.33;;;16.50;69.80;;;;;;5012486;28;20797;-73
2021/08/05 04:04:27;;;;;;;38.87;30.33;;;16.50;70.30;;;;;;5012691;28;20381;-71
2021/08/05 04:06:54;;;;;;;45.50;30.70;;;16.50;70.50;;;;;;4995650;28;20796;-72
2021/08/05 04:09:21;;;;;;;124.72;83.95;;;16.50;69.50;;;;;;4992345;28;20415;-72
2021/08/05 04:11:46;;;;;;;51.90;33.72;;;16.50;70.00;;;;;;4992697;28;20440;-72
2021/08/05 04:14:12;;;;;;;65.53;46.33;;;16.50;69.60;;;;;;5004322;28;20405;-71
2021/08/05 04:16:37;;;;;;;59.95;42.58;;;16.50;70.40;;;;;;5012159;28;20444;-71
2021/08/05 04:19:03;;;;;;;102.60;75.87;;;16.60;69.80;;;;;;5011866;28;20389;-71
2021/08/05 04:21:28;;;;;;;54.83;39.57;;;16.60;70.50;;;;;;5011943;28;20381;-71
2021/08/05 04:23:54;;;;;;;46.90;34.73;;;16.60;70.00;;;;;;5011985;28;20450;-71
2021/08/05 04:26:19;;;;;;;47.25;33.95;;;16.60;68.60;;;;;;5011500;28;20403;-71
2021/08/05 04:28:45;;;;;;;45.10;33.90;;;16.60;68.50;;;;;;5010935;28;20427;-71
2021/08/05 04:31:10;;;;;;;61.70;37.77;;;16.60;69.20;;;;;;5011514;28;20377;-71
2021/08/05 04:33:36;;;;;;;87.90;64.82;;;16.60;69.50;;;;;;5012048;28;20393;-72
2021/08/05 04:36:01;;;;;;;46.53;35.03;;;16.70;70.40;;;;;;5011683;28;20464;-71
2021/08/05 04:38:27;;;;;;;48.97;35.47;;;16.70;67.50;;;;;;5011643;28;20471;-71
2021/08/05 04:40:53;;;;;;;54.80;35.50;;;16.70;67.30;;;;;;5011160;28;20393;-71
2021/08/05 04:43:18;;;;;;;51.80;37.10;;;16.70;67.60;;;;;;5010644;28;20459;-71
2021/08/05 04:45:44;;;;;;;53.40;35.67;;;16.70;68.10;;;;;;5007982;28;20436;-71
2021/08/05 04:48:09;;;;;;;51.70;35.43;;;16.70;68.30;;;;;;5010468;28;20491;-71
2021/08/05 04:50:37;;;;;;;51.90;35.50;;;16.70;68.40;;;;;;5011278;28;20409;-71
2021/08/05 04:53:04;;;;;;;58.55;35.78;;;16.70;67.60;;;;;;5011469;28;20465;-71
2021/08/05 04:55:30;;;;;;;45.63;33.78;;;16.80;67.40;;;;;;5011718;28;20385;-71
2021/08/05 04:57:58;;;;;;;54.88;36.05;;;16.80;66.60;;;;;;5010697;28;20396;-71
2021/08/05 05:00:31;;;;;;;57.30;35.15;;;16.80;66.80;;;;;;5011158;28;20404;-71
2021/08/05 05:02:57;;;;;;;44.38;33.15;;;16.80;65.90;;;;;;5011380;28;20388;-74
2021/08/05 05:05:24;;;;;;;47.63;35.13;;;16.80;65.70;;;;;;5006589;28;20898;-70
2021/08/05 05:07:50;;;;;;;47.25;34.88;;;16.90;65.60;;;;;;4991476;28;20505;-71
2021/08/05 05:10:17;;;;;;;48.70;33.15;;;16.80;65.40;;;;;;4991443;28;20466;-69
2021/08/05 05:12:42;;;;;;;58.58;39.63;;;16.90;64.50;;;;;;5005670;28;20742;-70
2021/08/05 05:15:09;;;;;;;49.10;35.88;;;16.80;65.20;;;;;;5011116;28;20450;-69
2021/08/05 05:17:36;;;;;;;49.17;37.42;;;16.90;64.70;;;;;;5010878;28;20436;-69
2021/08/05 05:20:03;;;;;;;55.60;35.83;;;16.90;65.30;;;;;;5010940;28;20412;-70
2021/08/05 05:22:28;;;;;;;49.40;33.80;;;16.90;65.50;;;;;;5010774;28;20723;-69
2021/08/05 05:24:54;;;;;;;49.30;33.93;;;16.90;64.00;;;;;;5010862;28;20400;-70
2021/08/05 05:27:19;;;;;;;115.78;76.95;;;17.00;64.00;;;;;;5009943;28;20401;-70
2021/08/05 05:29:45;;;;;;;60.90;39.38;;;17.00;63.90;;;;;;5010362;28;20952;-71
2021/08/05 05:32:10;;;;;;;53.20;37.80;;;17.20;61.10;;;;;;5010637;28;20738;-70
2021/08/05 05:34:36;;;;;;;59.80;35.37;;;17.20;60.60;;;;;;5010683;28;20481;-70
2021/08/05 05:37:02;;;;;;;48.85;37.08;;;17.20;60.80;;;;;;5010817;28;20377;-71
2021/08/05 05:39:28;;;;;;;55.88;37.42;;;17.20;61.30;;;;;;5009877;28;20404;-70
2021/08/05 05:41:53;;;;;;;45.03;33.37;;;17.20;61.10;;;;;;5010589;28;20473;-70
2021/08/05 05:44:19;;;;;;;46.15;32.67;;;17.20;61.40;;;;;;5002724;28;20453;-70
2021/08/05 05:46:45;;;;;;;49.93;34.87;;;17.20;61.20;;;;;;4990412;28;20461;-70
2021/08/05 05:49:10;;;;;;;58.60;38.97;;;17.10;61.40;;;;;;4990277;28;20493;-69
2021/08/05 05:51:36;;;;;;;58.80;38.07;;;17.20;61.20;;;;;;4990886;28;20465;-69
2021/08/05 05:54:02;;;;;;;73.00;39.30;;;17.20;61.10;;;;;;4998150;28;20400;-70
2021/08/05 05:56:27;;;;;;;43.37;33.63;;;17.20;60.20;;;;;;5010260;28;20441;-70
2021/08/05 05:58:53;;;;;;;50.88;32.50;;;17.30;59.60;;;;;;4998911;28;20844;-70
2021/08/05 06:01:18;;;;;;;49.67;33.40;;;17.40;57.90;;;;;;4990470;28;20460;-70
2021/08/05 06:03:44;;;;;;;43.60;29.97;;;17.50;57.10;;;;;;4990757;28;20470;-70
2021/08/05 06:06:10;;;;;;;43.53;32.20;;;17.70;55.90;;;;;;5003032;28;20920;-70
2021/08/05 06:08:35;;;;;;;46.42;31.10;;;17.90;54.60;;;;;;5009151;28;20420;-70
2021/08/05 06:11:01;;;;;;;44.13;30.77;;;18.10;52.60;;;;;;5010069;28;20403;-70
2021/08/05 06:13:26;;;;;;;39.43;29.40;;;18.30;50.60;;;;;;5010068;28;20873;-69
2021/08/05 06:15:52;;;;;;;38.40;30.70;;;18.50;49.40;;;;;;5010507;28;20480;-68
2021/08/05 06:18:18;;;;;;;44.53;32.23;;;18.70;48.80;;;;;;5009795;28;20443;-69
2021/08/05 06:20:44;;;;;;;42.63;32.80;;;18.90;47.10;;;;;;4992441;28;20399;-69
2021/08/05 06:23:09;;;;;;;42.70;31.05;;;19.00;46.10;;;;;;5009633;28;20421;-69
2021/08/05 06:25:39;;;;;;;44.47;30.63;;;19.20;45.50;;;;;;5009554;28;20393;-70
2021/08/05 06:28:04;;;;;;;48.70;34.27;;;19.30;45.00;;;;;;5009640;28;20828;-70
2021/08/05 06:30:30;;;;;;;45.93;34.10;;;19.40;43.30;;;;;;5009768;28;20381;-70
2021/08/05 06:32:56;;;;;;;42.27;31.97;;;19.50;42.50;;;;;;5009901;28;20403;-70
2021/08/05 06:35:22;;;;;;;42.10;30.95;;;19.60;41.80;;;;;;5009442;28;20384;-70
2021/08/05 06:37:47;;;;;;;44.42;33.15;;;19.70;42.50;;;;;;5009708;28;20515;-70
2021/08/05 06:40:13;;;;;;;46.80;34.50;;;19.80;41.50;;;;;;5009864;28;20869;-70
2021/08/05 06:42:39;;;;;;;41.40;32.53;;;20.00;41.00;;;;;;5010308;28;20392;-70
2021/08/05 06:45:07;;;;;;;40.07;30.60;;;20.10;40.40;;;;;;4996052;28;20406;-70
2021/08/05 06:47:34;;;;;;;40.35;30.25;;;20.30;39.70;;;;;;4988349;28;20421;-70
2021/08/05 06:50:00;;;;;;;44.70;32.45;;;20.50;39.10;;;;;;4990263;28;20397;-70
2021/08/05 06:52:26;;;;;;;44.03;31.33;;;20.50;38.60;;;;;;4998093;28;20396;-70
2021/08/05 06:54:51;;;;;;;48.00;34.27;;;20.50;38.50;;;;;;5009451;28;20381;-70
2021/08/05 06:57:17;;;;;;;47.03;35.17;;;20.50;37.70;;;;;;5009481;28;20446;-69
2021/08/05 06:59:42;;;;;;;48.60;35.57;;;20.40;37.60;;;;;;5010007;28;20397;-70
2021/08/05 07:02:08;;;;;;;46.42;34.88;;;20.50;37.60;;;;;;5009508;28;20392;-70
2021/08/05 07:04:33;;;;;;;46.30;35.47;;;20.50;37.50;;;;;;5009712;28;20428;-70
2021/08/05 07:06:59;;;;;;;44.73;33.10;;;20.40;37.30;;;;;;4999280;28;20388;-69
2021/08/05 07:09:24;;;;;;;51.53;35.17;;;20.50;37.40;;;;;;5009511;28;20409;-69
2021/08/05 07:11:50;;;;;;;99.50;37.67;;;20.50;37.10;;;;;;5013136;28;20905;-69
2021/08/05 07:14:16;;;;;;;46.42;35.10;;;20.50;37.30;;;;;;5012852;28;20405;-69
2021/08/05 07:16:41;;;;;;;43.55;34.00;;;20.70;36.70;;;;;;5013106;28;20401;-69
2021/08/05 07:19:07;;;;;;;44.37;34.57;;;20.70;36.40;;;;;;5013405;28;20385;-72
2021/08/05 07:21:32;;;;;;;43.40;33.30;;;20.80;35.80;;;;;;5012634;28;20409;-70
2021/08/05 07:23:58;;;;;;;41.87;32.93;;;20.90;35.70;;;;;;5013155;28;20416;-70
2021/08/05 07:26:23;;;;;;;47.87;35.10;;;21.10;35.10;;;;;;5011578;28;20404;-70
2021/08/05 07:28:49;;;;;;;63.80;36.80;;;21.10;34.60;;;;;;5012579;28;20411;-70
2021/08/05 07:31:15;;;;;;;47.13;34.77;;;21.10;34.80;;;;;;5012741;28;20389;-70
2021/08/05 07:33:40;;;;;;;51.42;36.50;;;21.10;34.80;;;;;;5012627;28;20715;-71
2021/08/05 07:36:06;;;;;;;47.20;36.20;;;21.20;34.30;;;;;;5012691;28;20406;-69
2021/08/05 07:38:32;;;;;;;50.40;35.17;;;21.10;33.70;;;;;;5012613;28;20478;-71
2021/08/05 07:40:57;;;;;;;48.43;36.43;;;21.30;33.10;;;;;;5011769;28;20400;-70
2021/08/05 07:43:23;;;;;;;44.33;33.92;;;21.30;33.00;;;;;;5003077;28;20396;-70
2021/08/05 07:45:48;;;;;;;47.53;37.72;;;21.30;33.80;;;;;;5000624;28;20400;-69
2021/08/05 07:48:14;;;;;;;54.57;36.60;;;21.30;33.00;;;;;;5011693;28;20750;-70
2021/08/05 07:50:40;;;;;;;52.70;36.80;;;21.40;32.60;;;;;;5012309;28;20889;-71
2021/08/05 07:53:06;;;;;;;43.97;35.78;;;21.50;32.30;;;;;;5012366;28;20489;-69
2021/08/05 07:55:31;;;;;;;44.57;34.03;;;21.60;32.20;;;;;;5012077;28;20397;-69
2021/08/05 07:57:57;;;;;;;48.90;36.80;;;21.60;32.10;;;;;;5012501;28;20424;-70
2021/08/05 08:00:23;;;;;;;53.42;35.13;;;21.70;31.20;;;;;;5011510;28;20408;-69
2021/08/05 08:02:48;;;;;;;48.13;36.33;;;21.90;31.30;;;;;;5011954;28;20483;-69
2021/08/05 08:05:14;;;;;;;45.13;36.20;;;21.90;30.30;;;;;;5008372;28;20432;-70
2021/08/05 08:07:41;;;;;;;46.22;36.33;;;21.90;29.60;;;;;;4992311;28;20505;-70
2021/08/05 08:10:08;;;;;;;54.13;37.05;;;22.00;29.30;;;;;;5001748;28;20850;-70
2021/08/05 08:12:33;;;;;;;43.83;33.53;;;22.20;29.30;;;;;;5011998;28;20436;-72
2021/08/05 08:14:59;;;;;;;38.37;32.03;;;22.50;29.10;;;;;;5010590;28;20400;-70
2021/08/05 08:17:24;;;;;;;41.72;34.58;;;22.70;27.90;;;;;;5011638;28;20750;-72
2021/08/05 08:19:50;;;;;;;49.50;33.40;;;22.70;26.70;;;;;;5011356;28;20901;-72
2021/08/05 08:22:16;;;;;;;45.40;33.75;;;22.70;26.00;;;;;;5011238;28;20462;-70
2021/08/05 08:24:41;;;;;;;42.43;33.07;;;22.80;26.50;;;;;;5011347;28;20400;-70
2021/08/05 08:27:07;;;;;;;40.00;31.10;;;22.90;26.30;;;;;;5010944;28;20381;-73
2021/08/05 08:29:33;;;;;;;41.75;32.58;;;23.00;26.40;;;;;;5009837;28;20419;-70
2021/08/05 08:31:58;;;;;;;45.57;33.17;;;23.00;25.80;;;;;;5011454;28;20729;-70
2021/08/05 08:34:24;;;;;;;41.50;33.80;;;22.80;25.40;;;;;;5011425;28;20388;-71
2021/08/05 08:36:49;;;;;;;39.83;32.60;;;22.70;26.10;;;;;;5011770;28;20412;-71
2021/08/05 08:39:15;;;;;;;46.03;32.63;;;22.60;26.00;;;;;;5009933;28;20541;-71
2021/08/05 08:41:42;;;;;;;41.90;32.20;;;22.80;26.10;;;;;;5011365;28;20397;-72
2021/08/05 08:44:08;;;;;;;41.90;32.40;;;22.90;25.50;;;;;;5005196;28;20414;-71
2021/08/05 08:46:35;;;;;;;40.88;31.88;;;23.00;25.30;;;;;;4996874;28;20409;-70
2021/08/05 08:49:02;;;;;;;45.33;33.83;;;23.00;25.60;;;;;;5002323;28;20719;-70
2021/08/05 08:51:34;;;;;;;38.38;31.52;;;23.00;25.00;;;;;;4993752;28;20516;-71
2021/08/05 08:54:03;;;;;;;37.42;29.92;;;22.90;26.10;;;;;;5011602;28;20395;-71
2021/08/05 08:56:30;;;;;;;36.38;29.90;;;22.90;26.10;;;;;;5012084;28;20371;-71
2021/08/05 08:59:00;;;;;;;39.47;31.77;;;23.10;25.70;;;;;;5003378;28;20426;-71
2021/08/05 09:01:26;;;;;;;39.77;31.80;;;23.10;25.20;;;;;;5011313;28;20392;-70
2021/08/05 09:03:52;;;;;;;39.03;30.30;;;22.90;25.30;;;;;;5010785;28;20517;-70
2021/08/05 09:06:17;;;;;;;41.38;33.05;;;23.00;25.40;;;;;;4992297;28;20389;-70
2021/08/05 09:08:43;;;;;;;41.10;33.13;;;22.90;25.30;;;;;;5010130;28;20919;-69
2021/08/05 09:11:09;;;;;;;41.03;32.03;;;22.70;26.30;;;;;;5010915;28;20904;-70
2021/08/05 09:13:35;;;;;;;51.67;32.97;;;22.70;25.60;;;;;;5010753;28;20961;-71
2021/08/05 09:16:01;;;;;;;39.50;31.50;;;22.60;25.50;;;;;;5011217;28;20487;-71
2021/08/05 09:18:39;;;;;;;40.22;33.25;;;22.60;25.20;;;;;;5010174;28;20396;-71
2021/08/05 09:21:17;;;;;;;40.47;32.47;;;22.50;24.60;;;;;;5010778;28;20484;-71
2021/08/05 09:23:57;;;;;;;44.13;30.60;;;22.70;24.20;;;;;;5010240;28;20416;-70
2021/08/05 09:26:39;;;;;;;41.17;31.83;;;22.90;23.90;;;;;;5009842;28;22631;-71
2021/08/05 09:29:16;;;;;;;35.47;29.60;;;23.00;22.60;;;;;;5010110;28;20552;-71
2021/08/05 09:31:43;;;;;;;37.17;28.50;;;23.20;21.70;;;;;;5010584;28;20417;-70
2021/08/05 09:34:22;;;;;;;39.50;30.02;;;23.80;21.40;;;;;;5009406;28;20940;-70
2021/08/05 09:36:50;;;;;;;42.20;30.90;;;23.90;20.50;;;;;;5010110;28;20463;-70
2021/08/05 09:39:20;;;;;;;36.40;28.13;;;23.90;20.40;;;;;;5010148;28;20487;-70
2021/08/05 09:42:04;;;;;;;36.47;30.75;;;24.10;20.00;;;;;;5010778;28;20401;-71
2021/08/05 09:44:39;;;;;;;42.08;33.42;;;24.20;20.10;;;;;;5001573;28;20445;-70
2021/08/05 09:47:13;;;;;;;38.58;30.95;;;24.10;20.30;;;;;;5006826;28;20408;-71
2021/08/05 09:49:51;;;;;;;40.80;30.88;;;24.10;20.60;;;;;;5010063;28;20480;-72
2021/08/05 09:52:37;;;;;;;37.97;29.80;;;24.20;20.80;;;;;;5009695;28;20391;-70
2021/08/05 09:55:06;;;;;;;36.65;29.92;;;24.40;21.30;;;;;;5009417;28;20385;-70
2021/08/05 09:57:34;;;;;;;35.67;29.77;;;24.50;20.30;;;;;;5009457;28;20475;-71
2021/08/05 10:00:13;;;;;;;35.42;29.23;;;24.70;19.50;;;;;;4999382;28;20433;-71
2021/08/05 10:02:47;;;;;;;34.72;27.92;;;25.00;19.10;;;;;;4996371;28;20398;-75
2021/08/05 10:05:18;;;;;;;32.72;27.58;;;25.40;17.80;;;;;;5002742;28;20414;-71
2021/08/05 10:07:46;;;;;;;36.72;29.35;;;25.80;16.60;;;;;;5008798;28;20419;-69
2021/08/05 10:10:12;;;;;;;36.20;30.65;;;26.00;17.50;;;;;;5003309;28;20825;-70
2021/08/05 10:12:39;;;;;;;35.97;29.65;;;26.00;16.00;;;;;;5010075;28;20421;-70
2021/08/05 10:15:09;;;;;;;36.47;27.48;;;26.00;15.40;;;;;;4990689;28;20766;-70
2021/08/05 10:17:36;;;;;;;32.13;26.85;;;26.00;16.30;;;;;;5000856;28;20392;-70
2021/08/05 10:20:05;;;;;;;27.52;24.60;;;26.10;15.80;;;;;;5010055;28;20392;-70
2021/08/05 10:22:31;;;;;;;28.70;25.77;;;26.00;14.80;;;;;;5010268;28;20412;-71
2021/08/05 10:24:58;;;;;;;31.30;24.25;;;25.90;15.00;;;;;;5000411;28;20490;-70
2021/08/05 10:27:24;;;;;;;27.83;24.00;;;25.70;14.90;;;;;;4996997;28;20489;-70
2021/08/05 10:29:51;;;;;;;32.17;25.00;;;26.00;14.70;;;;;;5004161;28;20863;-70
2021/08/05 10:32:20;;;;;;;20.80;18.65;;;26.40;13.70;;;;;;5009753;28;20389;-70
2021/08/05 10:34:46;;;;;;;13.30;11.05;;;26.10;14.90;;;;;;5009610;28;20877;-71
2021/08/05 10:37:13;;;;;;;5.72;5.22;;;25.90;13.60;;;;;;5009984;28;20416;-70
2021/08/05 10:39:43;;;;;;;9.57;8.18;;;25.70;12.60;;;;;;5010129;28;20771;-71
2021/08/05 10:42:12;;;;;;;13.85;9.98;;;25.50;13.90;;;;;;5009907;28;20881;-71
2021/08/05 10:44:39;;;;;;;9.65;8.75;;;25.50;14.70;;;;;;4999528;28;20402;-70
2021/08/05 10:47:08;;;;;;;9.93;8.93;;;25.20;14.20;;;;;;4993388;28;20699;-70
2021/08/05 10:49:35;;;;;;;9.60;8.45;;;25.10;13.90;;;;;;5003871;28;20413;-69
2021/08/05 10:52:01;;;;;;;14.27;12.77;;;25.10;14.10;;;;;;5013174;28;20410;-69
2021/08/05 10:54:52;;;;;;;13.60;12.00;;;25.00;15.00;;;;;;5012973;28;20404;-71
2021/08/05 10:57:25;;;;;;;13.93;10.85;;;25.00;15.10;;;;;;5012026;28;20384;-70
2021/08/05 11:00:15;;;;;;;9.32;8.10;;;25.10;15.40;;;;;;5005286;28;20792;-69
2021/08/05 11:02:42;;;;;;;8.95;8.05;;;25.00;14.60;;;;;;5013220;28;20628;-70
2021/08/05 11:05:08;;;;;;;11.13;9.88;;;24.70;15.80;;;;;;5012652;28;20389;-69
2021/08/05 11:07:34;;;;;;;15.35;12.00;;;24.80;16.30;;;;;;5005145;28;20851;-70
2021/08/05 11:10:15;;;;;;;12.10;9.98;;;24.90;16.40;;;;;;5009819;28;20441;-71
2021/08/05 11:12:50;;;;;;;8.77;7.50;;;25.00;15.80;;;;;;5012452;28;20476;-69
2021/08/05 11:15:22;;;;;;;6.68;6.00;;;25.10;15.30;;;;;;5012166;28;20466;-70
2021/08/05 11:18:06;;;;;;;12.40;11.05;;;25.00;15.20;;;;;;5005109;28;20493;-70
2021/08/05 11:20:35;;;;;;;12.52;11.20;;;25.00;16.20;;;;;;5010369;28;20414;-70
2021/08/05 11:23:01;;;;;;;11.82;9.73;;;25.00;15.90;;;;;;5012638;28;20472;-70
2021/08/05 11:25:50;;;;;;;11.85;10.10;;;25.20;15.70;;;;;;5010569;28;20916;-70
2021/08/05 11:28:22;;;;;;;15.75;11.30;;;25.40;15.70;;;;;;4992694;28;20501;-70
2021/08/05 11:31:06;;;;;;;12.00;10.80;;;25.40;15.50;;;;;;4993351;28;20389;-70
2021/08/05 11:33:38;;;;;;;15.38;12.88;;;25.90;14.30;;;;;;4993534;28;20390;-70
2021/08/05 11:36:28;;;;;;;14.88;12.65;;;25.90;15.10;;;;;;4993721;28;20407;-70
2021/08/05 11:39:00;;;;;;;15.55;11.98;;;25.90;14.50;;;;;;4993057;28;20386;-70
2021/08/05 11:41:48;;;;;;;18.30;15.18;;;26.10;15.20;;;;;;5006657;28;20403;-70
2021/08/05 11:44:35;;;;;;;16.45;14.30;;;26.40;15.00;;;;;;5005617;28;20379;-70
2021/08/05 11:47:07;;;;;;;17.98;14.05;;;26.50;15.00;;;;;;4992641;28;20402;-72
2021/08/05 11:49:43;;;;;;;15.48;12.80;;;26.20;15.00;;;;;;4992591;28;20406;-72
2021/08/05 11:52:11;;;;;;;16.33;14.63;;;26.30;15.30;;;;;;4992513;28;20385;-71
2021/08/05 11:54:38;;;;;;;15.20;12.88;;;26.30;14.90;;;;;;4998635;28;20753;-70
2021/08/05 11:57:07;;;;;;;15.10;13.25;;;26.60;13.60;;;;;;5010917;28;20387;-70
2021/08/05 11:59:47;;;;;;;15.10;13.57;;;27.10;13.10;;;;;;4995899;28;20895;-70
2021/08/05 12:02:18;;;;;;;13.40;12.00;;;27.30;13.20;;;;;;4992677;28;20395;-70
2021/08/05 12:04:44;;;;;;;13.02;11.65;;;27.60;12.50;;;;;;4992356;28;20789;-70
2021/08/05 12:07:21;;;;;;;22.70;12.43;;;27.80;11.80;;;;;;5011516;28;20884;-70
2021/08/05 12:09:53;;;;;;;12.37;10.23;;;27.90;11.20;;;;;;5011540;28;20925;-70
2021/08/05 12:12:20;;;;;;;32.50;12.60;;;28.20;11.90;;;;;;5011795;28;20373;-70
2021/08/05 12:14:49;;;;;;;9.02;8.18;;;28.10;10.30;;;;;;5011659;28;20475;-71
2021/08/05 12:17:15;;;;;;;4.90;4.50;;;27.90;9.60;;;;;;5011480;28;20384;-70
2021/08/05 12:19:48;;;;;;;4.65;4.35;;;27.90;8.60;;;;;;5011446;28;20454;-70
2021/08/05 12:22:14;;;;;;;4.95;4.55;;;28.20;9.00;;;;;;5011004;28;20483;-74
2021/08/05 12:24:48;;;;;;;8.95;4.90;;;28.30;7.80;;;;;;5010966;28;20820;-69
2021/08/05 12:27:18;;;;;;;7.68;4.68;;;28.10;7.80;;;;;;5010980;28;20381;-69
2021/08/05 12:30:06;;;;;;;7.38;5.45;;;28.00;8.40;;;;;;5011126;28;20412;-69
2021/08/05 12:32:31;;;;;;;5.55;4.75;;;27.90;8.80;;;;;;5011540;28;20384;-70
2021/08/05 12:34:57;;;;;;;7.50;4.83;;;28.00;8.40;;;;;;5011596;28;20369;-70
2021/08/05 12:37:23;;;;;;;7.25;5.10;;;28.30;8.80;;;;;;5011329;28;20389;-70